createdAt,value
2023-03-07T00:00:07.393Z,8.20
2023-03-07T00:00:17.493Z,8.40
2023-03-07T00:00:27.554Z,9.10
2023-03-07T00:00:37.665Z,9.00
2023-03-07T00:00:47.675Z,9.10
2023-03-07T00:00:57.747Z,9.10
2023-03-07T00:01:07.865Z,10.00
2023-03-07T00:01:17.946Z,9.70
2023-03-07T00:01:27.999Z,9.50
2023-03-07T00:01:38.096Z,8.80
2023-03-07T00:01:48.160Z,9.00
2023-03-07T00:01:58.182Z,8.90
2023-03-07T00:02:08.265Z,8.60
2023-03-07T00:02:18.322Z,8.20
2023-03-07T00:02:28.423Z,8.50
2023-03-07T00:02:38.600Z,8.70
2023-03-07T00:02:48.708Z,9.20
2023-03-07T00:02:58.873Z,9.10
2023-03-07T00:03:08.976Z,8.80
2023-03-07T00:03:19.053Z,8.50
2023-03-07T00:03:29.144Z,9.30
2023-03-07T00:03:39.291Z,9.70
2023-03-07T00:03:49.421Z,9.40
2023-03-07T00:03:59.445Z,9.10
2023-03-07T00:04:09.579Z,9.10
2023-03-07T00:04:19.646Z,9.60
2023-03-07T00:04:29.713Z,9.80
2023-03-07T00:04:39.813Z,9.70
2023-03-07T07:40:14.361Z,13.10
2023-03-07T07:40:24.445Z,15.90
2023-03-07T07:40:34.565Z,17.20
2023-03-07T07:40:44.667Z,21.00
2023-03-07T07:40:54.752Z,21.40
2023-03-07T07:41:04.821Z,21.50
2023-03-07T07:41:14.896Z,20.50
2023-03-07T07:41:24.952Z,21.60
2023-03-07T07:41:35.054Z,22.00
2023-03-07T07:41:45.115Z,22.50
2023-03-07T07:41:55.205Z,22.90
2023-03-07T07:42:05.274Z,23.10
2023-03-07T07:42:15.364Z,22.90
2023-03-07T07:42:25.445Z,22.00
2023-03-07T07:42:35.524Z,22.60
2023-03-07T07:42:45.665Z,23.10
2023-03-07T07:42:55.716Z,23.50
2023-03-07T07:43:05.702Z,23.80
2023-03-07T07:43:15.756Z,23.80
2023-03-07T07:43:25.854Z,24.20
2023-03-07T07:43:35.919Z,24.20
2023-03-07T07:43:45.985Z,23.80
2023-03-07T07:43:56.046Z,23.40
2023-03-07T07:44:06.195Z,23.50
2023-03-07T07:44:16.264Z,23.10
2023-03-07T07:44:26.344Z,23.70
2023-03-07T07:44:36.422Z,23.10
2023-03-07T07:44:46.470Z,23.10
2023-03-07T07:44:56.525Z,23.60
2023-03-07T07:45:06.584Z,23.40
2023-03-07T07:45:16.649Z,23.80
2023-03-07T07:45:26.764Z,23.80
2023-03-07T07:45:36.851Z,23.90
2023-03-07T07:45:46.927Z,23.70
2023-03-07T07:45:57.022Z,22.80
2023-03-07T07:46:07.100Z,22.30
2023-03-07T07:46:17.240Z,22.10
2023-03-07T07:46:27.195Z,23.00
2023-03-07T07:46:37.270Z,23.60
2023-03-07T07:46:47.327Z,24.00
2023-03-07T07:46:57.395Z,23.60
2023-03-07T07:47:07.468Z,23.70
2023-03-07T07:47:17.527Z,23.60
2023-03-07T07:47:27.579Z,24.60
2023-03-07T07:47:37.636Z,25.30
2023-03-07T07:47:47.696Z,25.10
2023-03-07T07:47:57.776Z,23.80
2023-03-07T07:48:07.854Z,22.30
2023-03-07T07:48:17.915Z,22.90
2023-03-07T07:48:27.984Z,22.60
2023-03-07T07:48:38.078Z,22.20
2023-03-07T07:48:48.150Z,21.60
2023-03-07T07:48:58.215Z,21.50
2023-03-07T07:49:08.287Z,22.90
2023-03-07T07:49:18.760Z,23.20
2023-03-07T07:49:28.361Z,23.40
2023-03-07T07:49:38.457Z,22.80
2023-03-07T07:49:48.532Z,22.90
2023-03-07T07:49:58.645Z,23.60
2023-03-07T07:50:08.707Z,24.00
2023-03-07T07:50:18.834Z,23.60
2023-03-07T07:50:28.912Z,22.80
2023-03-07T07:50:38.814Z,21.90
2023-03-07T07:50:48.887Z,21.60
2023-03-07T07:50:59.033Z,22.50
2023-03-07T07:51:09.095Z,22.70
2023-03-07T07:51:19.164Z,23.20
2023-03-07T07:51:29.224Z,22.60
2023-03-07T07:51:39.307Z,22.90
2023-03-07T07:51:49.396Z,22.70
2023-03-07T07:51:59.435Z,23.10
2023-03-07T07:52:09.334Z,22.30
2023-03-07T07:52:19.406Z,22.20
2023-03-07T07:52:29.487Z,22.20
2023-03-07T07:52:39.576Z,22.20
2023-03-07T07:52:49.646Z,22.00
2023-03-07T07:52:59.744Z,21.30
2023-03-07T07:53:09.794Z,21.70
2023-03-07T07:53:19.920Z,22.50
2023-03-07T07:53:29.966Z,22.30
2023-03-07T07:53:40.066Z,22.20
2023-03-07T07:53:50.206Z,21.80
2023-03-07T07:54:00.264Z,22.20
2023-03-07T07:54:10.340Z,21.60
2023-03-07T07:54:20.405Z,21.80
2023-03-07T07:54:30.497Z,21.90
2023-03-07T07:54:40.575Z,23.20
2023-03-07T07:54:50.705Z,23.10
2023-03-07T07:55:00.803Z,23.40
2023-03-07T07:55:10.855Z,23.10
2023-03-07T07:55:20.944Z,23.40
2023-03-07T07:55:31.055Z,24.10
2023-03-07T07:55:41.116Z,23.90
2023-03-07T07:55:51.192Z,23.00
2023-03-07T07:56:01.301Z,22.10
2023-03-07T07:56:11.367Z,22.00
2023-03-07T07:56:21.423Z,21.30
2023-03-07T07:56:31.488Z,21.70
2023-03-07T07:56:41.554Z,21.20
2023-03-07T07:56:51.662Z,21.10
2023-03-07T07:57:01.722Z,20.20
2023-03-07T07:57:11.788Z,21.00
2023-03-07T07:57:22.820Z,21.20
2023-03-07T07:57:31.905Z,21.60
2023-03-07T07:57:41.973Z,20.90
2023-03-07T07:57:52.026Z,20.60
2023-03-07T07:58:02.135Z,20.40
2023-03-07T07:58:12.220Z,20.80
2023-03-07T07:58:22.363Z,20.90
2023-03-07T07:58:32.425Z,20.60
2023-03-07T07:58:42.513Z,20.60
2023-03-07T07:58:52.598Z,20.50
2023-03-07T07:59:02.705Z,20.90
2023-03-07T07:59:12.778Z,20.80
2023-03-07T07:59:22.844Z,21.10
2023-03-07T07:59:32.963Z,20.90
2023-03-07T07:59:43.024Z,21.00
2023-03-07T07:59:53.086Z,21.20
2023-03-07T08:00:03.209Z,21.50
2023-03-07T08:00:13.328Z,21.60
2023-03-07T08:00:23.390Z,21.90
2023-03-07T08:00:33.442Z,21.50
2023-03-07T08:00:43.540Z,21.40
2023-03-07T08:00:53.624Z,20.90
2023-03-07T08:01:03.725Z,20.30
2023-03-07T08:01:13.816Z,20.10
2023-03-07T08:01:23.869Z,19.70
2023-03-07T08:01:33.925Z,20.60
2023-03-07T08:01:44.017Z,20.90
2023-03-07T08:01:54.109Z,21.30
2023-03-07T08:02:04.121Z,20.70
2023-03-07T08:02:14.152Z,20.80
2023-03-07T08:02:24.343Z,21.10
2023-03-07T08:02:34.382Z,21.00
2023-03-07T08:02:44.470Z,21.30
2023-03-07T08:02:54.563Z,21.30
2023-03-07T08:03:04.710Z,21.60
2023-03-07T08:03:14.774Z,21.30
2023-03-07T08:03:25.008Z,20.40
2023-03-07T08:03:34.971Z,19.30
2023-03-07T08:03:45.090Z,20.00
2023-03-07T08:03:55.297Z,20.30
2023-03-07T08:04:05.221Z,21.00
2023-03-07T08:04:15.284Z,20.80
2023-03-07T08:04:25.344Z,21.10
2023-03-07T08:04:35.416Z,21.00
2023-03-07T08:04:45.485Z,20.70
2023-03-07T08:04:55.551Z,20.20
2023-03-07T08:05:05.635Z,20.40
2023-03-07T08:05:15.704Z,20.20
2023-03-07T08:05:25.634Z,19.80
2023-03-07T08:05:35.724Z,19.40
2023-03-07T08:05:45.793Z,19.60
2023-03-07T08:05:55.864Z,20.70
2023-03-07T08:06:05.934Z,20.40
2023-03-07T08:06:16.005Z,20.00
2023-03-07T08:06:26.079Z,19.10
2023-03-07T08:06:36.122Z,19.70
2023-03-07T08:06:46.214Z,20.80
2023-03-07T08:06:56.296Z,21.60
2023-03-07T08:07:06.364Z,21.90
2023-03-07T08:07:16.487Z,21.50
2023-03-07T08:07:26.574Z,21.60
2023-03-07T08:07:36.672Z,20.90
2023-03-07T08:07:46.742Z,21.40
2023-03-07T08:07:56.826Z,21.10
2023-03-07T08:08:06.915Z,20.70
2023-03-07T08:08:17.032Z,20.70
2023-03-07T08:08:26.976Z,20.40
2023-03-07T08:08:37.039Z,20.50
2023-03-07T08:08:47.145Z,20.60
2023-03-07T08:08:57.235Z,20.40
2023-03-07T08:09:07.395Z,21.30
2023-03-07T08:09:17.475Z,21.40
2023-03-07T08:09:27.535Z,21.40
2023-03-07T08:09:37.657Z,20.60
2023-03-07T08:09:47.722Z,20.00
2023-03-07T08:09:57.805Z,20.80
2023-03-07T08:10:07.900Z,21.30
2023-03-07T08:10:17.977Z,20.80
2023-03-07T08:10:28.078Z,19.60
2023-03-07T08:10:38.157Z,19.40
2023-03-07T08:10:48.225Z,20.20
2023-03-07T08:10:58.352Z,20.40
2023-03-07T08:11:08.447Z,20.00
2023-03-07T08:11:18.505Z,20.50
2023-03-07T08:11:28.573Z,21.10
2023-03-07T08:11:38.554Z,21.20
2023-03-07T08:11:48.644Z,21.20
2023-03-07T08:11:58.754Z,21.00
2023-03-07T08:12:08.843Z,21.40
2023-03-07T08:12:18.835Z,21.20
2023-03-07T08:12:28.944Z,21.20
2023-03-07T08:12:39.049Z,21.30
2023-03-07T08:12:49.131Z,20.90
2023-03-07T08:12:59.284Z,21.20
2023-03-07T08:13:09.343Z,20.40
2023-03-07T08:13:19.436Z,20.80
2023-03-07T08:13:29.563Z,21.00
2023-03-07T08:13:39.544Z,20.70
2023-03-07T08:13:49.634Z,20.10
2023-03-07T08:13:59.722Z,19.60
2023-03-07T08:14:09.818Z,19.90
2023-03-07T08:14:19.912Z,19.70
2023-03-07T08:14:30.035Z,20.80
2023-03-07T08:14:40.018Z,20.70
2023-03-07T08:14:50.064Z,21.00
2023-03-07T08:15:00.157Z,20.00
2023-03-07T08:15:10.155Z,20.10
2023-03-07T08:15:20.245Z,20.00
2023-03-07T08:15:30.358Z,20.40
2023-03-07T08:15:40.503Z,20.40
2023-03-07T08:15:50.513Z,20.20
2023-03-07T08:16:00.622Z,20.10
2023-03-07T08:16:10.830Z,19.50
2023-03-07T08:16:20.734Z,19.90
2023-03-07T08:16:30.739Z,20.10
2023-03-07T08:16:40.822Z,20.20
2023-03-07T08:16:50.874Z,18.80
2023-03-07T08:17:00.935Z,19.00
2023-03-07T08:17:11.033Z,19.10
2023-03-07T08:17:21.104Z,20.00
2023-03-07T08:17:31.224Z,20.10
2023-03-07T08:17:41.165Z,19.80
2023-03-07T08:17:51.318Z,20.70
2023-03-07T08:18:01.373Z,20.30
2023-03-07T08:18:11.488Z,20.50
2023-03-07T08:18:21.557Z,20.20
2023-03-07T08:18:31.617Z,20.70
2023-03-07T08:18:41.685Z,21.30
2023-03-07T08:18:51.818Z,21.30
2023-03-07T08:19:01.864Z,21.10
2023-03-07T08:19:11.942Z,20.70
2023-03-07T08:19:22.016Z,20.20
2023-03-07T08:19:32.092Z,20.10
2023-03-07T08:19:42.182Z,19.20
2023-03-07T08:19:52.254Z,18.90
2023-03-07T08:20:02.380Z,18.90
2023-03-07T08:20:12.473Z,19.90
2023-03-07T08:20:22.656Z,20.00
2023-03-07T08:20:32.534Z,20.30
2023-03-07T08:20:42.615Z,19.90
2023-03-07T08:20:52.722Z,20.20
2023-03-07T08:21:02.822Z,19.80
2023-03-07T08:21:12.890Z,19.40
2023-03-07T08:21:22.947Z,19.20
2023-03-07T08:21:33.023Z,19.40
2023-03-07T08:21:43.093Z,20.00
2023-03-07T08:21:53.163Z,19.70
2023-03-07T08:22:03.282Z,19.90
2023-03-07T08:22:13.247Z,20.30
2023-03-07T08:22:23.246Z,19.50
2023-03-07T08:22:33.328Z,19.00
2023-03-07T08:22:43.461Z,18.70
2023-03-07T08:22:53.526Z,18.70
2023-03-07T08:23:03.604Z,18.80
2023-03-07T08:23:13.685Z,19.60
2023-03-07T08:23:23.764Z,20.60
2023-03-07T08:23:33.834Z,21.40
2023-03-07T08:23:43.887Z,20.70
2023-03-07T08:23:53.950Z,20.30
2023-03-07T08:24:04.034Z,19.50
2023-03-07T08:24:14.144Z,19.20
2023-03-07T08:24:38.564Z,18.80
2023-03-07T08:24:40.652Z,18.00
2023-03-07T08:24:46.124Z,18.50
2023-03-07T08:24:56.194Z,19.00
2023-03-07T08:25:06.270Z,19.80
2023-03-07T08:25:16.342Z,18.60
2023-03-07T08:25:26.413Z,18.50
2023-03-07T08:25:36.485Z,18.50
2023-03-07T08:25:46.554Z,20.20
2023-03-07T08:25:56.625Z,20.90
2023-03-07T08:26:06.701Z,21.70
2023-03-07T08:26:16.762Z,20.90
2023-03-07T08:26:26.834Z,20.70
2023-03-07T08:26:36.949Z,20.10
2023-03-07T08:26:47.116Z,19.00
2023-03-07T08:26:57.022Z,18.40
2023-03-07T08:27:07.095Z,18.80
2023-03-07T08:27:17.152Z,19.70
2023-03-07T08:27:27.226Z,19.80
2023-03-07T08:27:37.293Z,19.30
2023-03-07T08:27:47.363Z,18.90
2023-03-07T08:27:57.421Z,19.10
2023-03-07T08:28:07.553Z,18.30
2023-03-07T08:28:17.631Z,18.70
2023-03-07T08:28:27.705Z,18.50
2023-03-07T08:28:37.769Z,19.00
2023-03-07T08:28:47.852Z,19.20
2023-03-07T08:28:57.823Z,18.80
2023-03-07T08:29:07.936Z,19.20
2023-03-07T08:29:18.036Z,18.20
2023-03-07T08:29:28.130Z,17.60
2023-03-07T08:29:38.192Z,17.30
2023-03-07T08:29:48.259Z,17.50
2023-03-07T08:29:58.369Z,19.30
2023-03-07T08:30:08.434Z,19.10
2023-03-07T08:30:18.512Z,19.40
2023-03-07T08:30:28.567Z,18.90
2023-03-07T08:30:38.634Z,18.80
2023-03-07T08:30:48.725Z,18.60
2023-03-07T08:30:58.792Z,17.90
2023-03-07T08:31:08.908Z,18.20
2023-03-07T08:31:19.023Z,17.80
2023-03-07T08:31:29.006Z,18.90
2023-03-07T08:31:39.085Z,19.30
2023-03-07T08:31:49.173Z,20.40
2023-03-07T08:31:59.232Z,20.10
2023-03-07T08:32:11.660Z,20.00
2023-03-07T08:32:19.382Z,19.20
2023-03-07T08:32:29.402Z,19.00
2023-03-07T08:32:39.468Z,19.90
2023-03-07T08:32:49.533Z,20.60
2023-03-07T08:32:59.675Z,19.90
2023-03-07T08:33:09.727Z,18.90
2023-03-07T08:33:19.783Z,18.60
2023-03-07T08:33:29.847Z,19.20
2023-03-07T08:33:39.932Z,19.70
2023-03-07T08:33:49.992Z,19.80
2023-03-07T08:34:00.107Z,19.50
2023-03-07T08:34:10.193Z,19.20
2023-03-07T08:34:20.270Z,18.50
2023-03-07T08:34:30.333Z,18.30
2023-03-07T08:34:40.422Z,18.60
2023-03-07T08:34:50.502Z,18.40
2023-03-07T08:35:00.581Z,18.90
2023-03-07T08:35:10.642Z,18.80
2023-03-07T08:35:20.773Z,18.90
2023-03-07T08:35:30.875Z,18.70
2023-03-07T08:35:41.014Z,19.20
2023-03-07T08:35:51.150Z,18.90
2023-03-07T08:36:01.268Z,18.50
2023-03-07T08:36:11.256Z,18.90
2023-03-07T08:36:21.305Z,19.70
2023-03-07T08:36:31.364Z,19.60
2023-03-07T08:36:41.443Z,18.20
2023-03-07T08:36:51.507Z,18.10
2023-03-07T08:37:01.556Z,18.40
2023-03-07T08:37:11.633Z,18.70
2023-03-07T08:37:21.694Z,19.00
2023-03-07T08:37:31.762Z,19.40
2023-03-07T08:37:41.824Z,19.50
2023-03-07T08:37:51.893Z,18.10
2023-03-07T08:38:01.966Z,17.90
2023-03-07T08:38:12.034Z,17.70
2023-03-07T08:38:22.109Z,18.70
2023-03-07T08:38:32.188Z,18.20
2023-03-07T08:38:42.267Z,18.50
2023-03-07T08:38:52.392Z,18.30
2023-03-07T08:39:02.466Z,19.00
2023-03-07T08:39:12.526Z,19.30
2023-03-07T08:39:22.592Z,18.90
2023-03-07T08:39:32.682Z,19.00
2023-03-07T08:39:42.756Z,18.30
2023-03-07T08:39:52.824Z,18.30
2023-03-07T08:40:02.925Z,18.20
2023-03-07T08:40:12.984Z,18.70
2023-03-07T08:40:23.074Z,19.10
2023-03-07T08:40:33.153Z,19.00
2023-03-07T08:40:43.214Z,19.50
2023-03-07T08:40:53.303Z,19.30
2023-03-07T08:41:03.386Z,19.70
2023-03-07T08:41:13.452Z,19.10
2023-03-07T08:41:23.541Z,19.00
2023-03-07T08:41:33.630Z,18.80
2023-03-07T08:41:43.716Z,18.80
2023-03-07T08:41:53.779Z,17.90
2023-03-07T08:42:03.980Z,17.30
2023-03-07T08:42:13.973Z,16.90
2023-03-07T08:42:24.183Z,17.40
2023-03-07T08:42:34.167Z,18.10
2023-03-07T08:42:44.241Z,18.30
2023-03-07T08:42:54.292Z,18.70
2023-03-07T08:43:04.402Z,18.10
2023-03-07T08:43:14.474Z,17.80
2023-03-07T08:43:24.483Z,16.80
2023-03-07T08:43:34.571Z,17.70
2023-03-07T08:43:44.670Z,18.30
2023-03-07T08:43:54.764Z,18.60
2023-03-07T08:44:04.840Z,18.60
2023-03-07T08:44:14.926Z,18.30
2023-03-07T08:44:25.021Z,18.50
2023-03-07T08:44:35.121Z,17.70
2023-03-07T08:44:45.223Z,17.40
2023-03-07T08:44:55.300Z,16.80
2023-03-07T08:45:05.370Z,17.60
2023-03-07T08:45:15.469Z,17.10
2023-03-07T08:45:25.543Z,17.90
2023-03-07T08:45:35.620Z,17.70
2023-03-07T08:45:45.686Z,18.30
2023-03-07T08:45:55.803Z,18.60
2023-03-07T08:46:05.807Z,18.30
2023-03-07T08:46:15.948Z,18.00
2023-03-07T08:46:26.066Z,17.30
2023-03-07T08:46:36.076Z,17.60
2023-03-07T08:46:46.138Z,17.90
2023-03-07T08:46:56.210Z,17.90
2023-03-07T08:47:06.279Z,17.70
2023-03-07T08:47:16.368Z,17.10
2023-03-07T08:47:26.427Z,17.30
2023-03-07T08:47:36.501Z,17.10
2023-03-07T08:47:46.622Z,17.00
2023-03-07T08:47:56.687Z,17.00
2023-03-07T08:48:06.779Z,17.30
2023-03-07T08:48:16.848Z,17.60
2023-03-07T08:48:26.917Z,17.40
2023-03-07T08:48:37.022Z,16.70
2023-03-07T08:48:47.081Z,16.40
2023-03-07T08:48:57.158Z,16.60
2023-03-07T08:49:07.262Z,16.70
2023-03-07T08:49:17.342Z,16.90
2023-03-07T08:49:27.396Z,17.60
2023-03-07T08:49:37.471Z,18.00
2023-03-07T08:49:47.577Z,17.50
2023-03-07T08:49:57.636Z,16.80
2023-03-07T08:50:07.709Z,16.70
2023-03-07T08:50:17.896Z,17.20
2023-03-07T08:50:28.003Z,17.50
2023-03-07T08:50:38.075Z,16.70
2023-03-07T08:50:48.182Z,17.40
2023-03-07T08:50:58.245Z,17.90
2023-03-07T08:51:08.366Z,18.80
2023-03-07T08:51:18.293Z,18.60
2023-03-07T08:51:28.445Z,18.00
2023-03-07T08:51:38.540Z,17.70
2023-03-07T08:51:48.633Z,16.90
2023-03-07T08:51:58.746Z,17.00
2023-03-07T08:52:08.828Z,16.90
2023-03-07T08:52:18.935Z,16.80
2023-03-07T08:52:29.052Z,16.70
2023-03-07T08:52:39.133Z,16.10
2023-03-07T08:52:49.205Z,16.50
2023-03-07T08:52:59.298Z,16.90
2023-03-07T08:53:09.374Z,17.30
2023-03-07T08:53:19.438Z,17.50
2023-03-07T08:53:29.584Z,17.60
2023-03-07T08:53:39.517Z,18.70
2023-03-07T08:53:49.586Z,18.30
2023-03-07T08:53:59.655Z,18.30
2023-03-07T08:54:09.705Z,17.50
2023-03-07T08:54:19.850Z,17.20
2023-03-07T08:54:29.907Z,17.30
2023-03-07T08:54:39.974Z,17.10
2023-03-07T08:54:50.056Z,17.30
2023-03-07T08:55:00.133Z,17.10
2023-03-07T08:55:10.195Z,17.30
2023-03-07T08:55:20.277Z,17.20
2023-03-07T08:55:30.358Z,16.50
2023-03-07T08:55:40.413Z,15.70
2023-03-07T08:55:50.527Z,15.60
2023-03-07T08:56:00.612Z,16.60
2023-03-07T08:56:10.732Z,16.50
2023-03-07T08:56:20.862Z,17.10
2023-03-07T08:56:30.935Z,16.60
2023-03-07T08:56:40.909Z,17.40
2023-03-07T08:56:51.002Z,17.00
2023-03-07T08:57:01.097Z,17.20
2023-03-07T08:57:11.223Z,16.70
2023-03-07T08:57:21.212Z,16.00
2023-03-07T08:57:31.331Z,16.20
2023-03-07T08:57:41.401Z,16.70
2023-03-07T08:57:51.533Z,17.40
2023-03-07T08:58:01.631Z,17.70
2023-03-07T08:58:11.713Z,17.20
2023-03-07T08:58:21.792Z,17.90
2023-03-07T08:58:31.890Z,17.50
2023-03-07T08:58:41.982Z,17.20
2023-03-07T08:58:52.100Z,16.30
2023-03-07T08:59:02.174Z,15.60
2023-03-07T08:59:12.312Z,15.80
2023-03-07T08:59:22.433Z,16.00
2023-03-07T08:59:32.502Z,17.60
2023-03-07T08:59:42.592Z,17.30
2023-03-07T08:59:52.677Z,17.60
2023-03-07T09:00:02.779Z,16.60
2023-03-07T09:00:12.868Z,16.80
2023-03-07T09:00:23.004Z,16.50
2023-03-07T09:00:32.968Z,16.60
2023-03-07T09:00:43.027Z,17.20
2023-03-07T09:00:53.081Z,16.60
2023-03-07T09:01:03.154Z,16.70
2023-03-07T09:01:13.243Z,15.60
2023-03-07T09:01:23.358Z,15.90
2023-03-07T09:01:33.511Z,16.20
2023-03-07T09:01:43.517Z,16.50
2023-03-07T09:01:53.653Z,17.40
2023-03-07T09:02:03.628Z,17.00
2023-03-07T09:02:13.667Z,16.90
2023-03-07T09:02:23.562Z,16.20
2023-03-07T09:02:33.627Z,16.20
2023-03-07T09:02:43.696Z,16.50
2023-03-07T09:02:53.871Z,16.80
2023-03-07T09:03:03.791Z,17.70
2023-03-07T09:03:13.929Z,16.70
2023-03-07T09:03:23.969Z,16.70
2023-03-07T09:03:34.021Z,16.40
2023-03-07T09:03:44.108Z,16.90
2023-03-07T09:03:54.060Z,16.60
2023-03-07T09:04:04.191Z,16.00
2023-03-07T09:04:14.262Z,15.60
2023-03-07T09:04:24.423Z,15.10
2023-03-07T09:04:34.390Z,15.10
2023-03-07T09:04:44.502Z,16.00
2023-03-07T09:04:54.715Z,16.70
2023-03-07T09:05:04.667Z,16.80
2023-03-07T09:05:14.748Z,16.70
2023-03-07T09:05:24.889Z,16.40
2023-03-07T09:05:34.825Z,16.30
2023-03-07T09:05:44.889Z,16.00
2023-03-07T09:05:54.971Z,16.40
2023-03-07T09:06:05.070Z,16.80
2023-03-07T09:06:15.137Z,16.80
2023-03-07T09:06:25.208Z,16.10
2023-03-07T09:06:35.247Z,15.90
2023-03-07T09:06:45.338Z,15.60
2023-03-07T09:06:55.408Z,15.60
2023-03-07T09:07:05.462Z,15.60
2023-03-07T09:07:15.509Z,15.60
2023-03-07T09:07:25.568Z,15.50
2023-03-07T09:07:35.649Z,15.10
2023-03-07T09:07:45.769Z,15.30
2023-03-07T09:07:55.810Z,15.50
2023-03-07T09:08:05.887Z,15.60
2023-03-07T09:08:15.948Z,15.20
2023-03-07T09:08:26.054Z,15.40
2023-03-07T09:08:36.117Z,15.50
2023-03-07T09:08:46.178Z,15.70
2023-03-07T09:08:56.225Z,15.10
2023-03-07T09:09:06.273Z,15.20
2023-03-07T09:09:16.357Z,15.40
2023-03-07T09:09:26.379Z,16.00
2023-03-07T09:09:36.448Z,15.40
2023-03-07T09:09:46.523Z,15.40
2023-03-07T09:09:56.569Z,14.90
2023-03-07T09:10:06.659Z,15.70
2023-03-07T09:10:16.737Z,15.50
2023-03-07T09:10:26.788Z,15.90
2023-03-07T09:10:36.848Z,15.30
2023-03-07T09:10:46.897Z,15.80
2023-03-07T09:10:56.974Z,15.90
2023-03-07T09:11:07.028Z,16.20
2023-03-07T09:11:17.081Z,16.00
2023-03-07T09:11:27.158Z,15.80
2023-03-07T09:11:37.233Z,15.70
2023-03-07T09:11:47.316Z,15.90
2023-03-07T09:11:57.390Z,16.20
2023-03-07T09:12:07.447Z,15.60
2023-03-07T09:12:17.567Z,14.50
2023-03-07T09:12:27.617Z,13.90
2023-03-07T09:12:37.699Z,14.40
2023-03-07T09:12:47.758Z,15.00
2023-03-07T09:12:57.825Z,15.80
2023-03-07T09:13:07.960Z,15.50
2023-03-07T09:13:18.462Z,15.30
2023-03-07T09:13:28.037Z,14.60
2023-03-07T09:13:49.792Z,14.70
2023-03-07T09:13:52.709Z,15.10
2023-03-07T09:13:59.054Z,15.10
2023-03-07T09:14:09.118Z,15.00
2023-03-07T09:14:19.198Z,15.40
2023-03-07T09:14:29.235Z,16.00
2023-03-07T09:14:39.335Z,15.70
2023-03-07T09:14:49.431Z,15.30
2023-03-07T09:14:59.475Z,14.30
2023-03-07T09:15:09.571Z,14.30
2023-03-07T09:15:19.677Z,14.50
2023-03-07T09:15:29.736Z,15.40
2023-03-07T09:15:39.809Z,15.70
2023-03-07T09:15:49.894Z,15.60
2023-03-07T09:15:59.980Z,15.20
2023-03-07T09:16:10.092Z,14.20
2023-03-07T09:16:20.071Z,14.60
2023-03-07T09:16:30.176Z,14.80
2023-03-07T09:16:40.463Z,15.30
2023-03-07T09:16:50.376Z,14.80
2023-03-07T09:17:00.481Z,14.80
2023-03-07T09:17:10.547Z,14.70
2023-03-07T09:17:20.703Z,15.00
2023-03-07T09:17:30.605Z,15.10
2023-03-07T09:17:40.668Z,15.30
2023-03-07T09:17:50.755Z,15.50
2023-03-07T09:18:00.846Z,14.70
2023-03-07T09:18:10.837Z,14.30
2023-03-07T09:18:20.916Z,14.50
2023-03-07T09:18:31.762Z,15.10
2023-03-07T09:18:41.206Z,16.10
2023-03-07T09:18:51.290Z,15.90
2023-03-07T09:19:01.350Z,15.90
2023-03-07T09:19:11.339Z,14.90
2023-03-07T09:19:21.663Z,15.00
2023-03-07T09:19:31.543Z,15.20
2023-03-07T09:19:41.617Z,16.50
2023-03-07T09:19:51.626Z,16.10
2023-03-07T09:20:01.701Z,15.90
2023-03-07T09:20:11.764Z,15.30
2023-03-07T09:20:21.857Z,15.50
2023-03-07T09:20:31.928Z,15.40
2023-03-07T09:20:42.006Z,15.60
2023-03-07T09:20:52.069Z,15.10
2023-03-07T09:21:02.129Z,14.60
2023-03-07T09:21:12.188Z,14.30
2023-03-07T09:21:22.330Z,14.20
2023-03-07T09:21:32.395Z,14.60
2023-03-07T09:21:42.461Z,14.60
2023-03-07T09:21:52.537Z,14.90
2023-03-07T09:22:02.598Z,15.40
2023-03-07T09:22:12.668Z,15.50
2023-03-07T09:22:22.779Z,15.20
2023-03-07T09:22:32.853Z,14.20
2023-03-07T09:22:42.942Z,13.40
2023-03-07T09:22:52.999Z,12.60
2023-03-07T09:23:03.066Z,12.20
2023-03-07T09:23:13.134Z,12.70
2023-03-07T09:23:23.180Z,13.60
2023-03-07T09:23:33.240Z,14.70
2023-03-07T09:23:43.313Z,15.00
2023-03-07T09:23:53.347Z,14.70
2023-03-07T09:24:03.427Z,14.50
2023-03-07T09:24:13.489Z,14.30
2023-03-07T09:24:23.557Z,14.30
2023-03-07T09:24:33.648Z,13.70
2023-03-07T09:24:43.739Z,13.70
2023-03-07T09:24:53.859Z,13.80
2023-03-07T09:25:03.967Z,14.40
2023-03-07T09:25:14.016Z,14.10
2023-03-07T09:25:24.087Z,14.90
2023-03-07T09:25:34.145Z,15.20
2023-03-07T09:25:44.204Z,15.40
2023-03-07T09:25:54.298Z,15.50
2023-03-07T09:26:04.378Z,14.90
2023-03-07T09:26:14.453Z,14.70
2023-03-07T09:26:24.517Z,14.30
2023-03-07T09:26:34.597Z,14.30
2023-03-07T09:26:44.666Z,13.90
2023-03-07T09:26:54.748Z,13.20
2023-03-07T09:27:04.837Z,13.20
2023-03-07T09:27:14.937Z,13.70
2023-03-07T09:27:25.010Z,13.70
2023-03-07T09:27:35.102Z,13.70
2023-03-07T09:27:45.157Z,13.80
2023-03-07T09:27:55.315Z,14.20
2023-03-07T09:28:05.416Z,14.00
2023-03-07T09:28:15.489Z,13.80
2023-03-07T09:28:25.568Z,13.30
2023-03-07T09:28:35.646Z,13.50
2023-03-07T09:28:45.707Z,13.90
2023-03-07T09:28:55.791Z,14.70
2023-03-07T09:29:05.927Z,14.80
2023-03-07T09:29:15.848Z,14.20
2023-03-07T09:29:25.989Z,13.80
2023-03-07T09:29:36.092Z,13.50
2023-03-07T09:29:46.140Z,14.30
2023-03-07T09:29:56.206Z,14.40
2023-03-07T09:30:06.318Z,14.70
2023-03-07T09:30:16.443Z,14.80
2023-03-07T09:30:26.520Z,14.70
2023-03-07T09:30:36.628Z,14.20
2023-03-07T09:30:46.686Z,13.90
2023-03-07T09:30:56.756Z,14.00
2023-03-07T09:31:06.867Z,14.10
2023-03-07T09:31:16.887Z,14.00
2023-03-07T09:31:26.841Z,14.20
2023-03-07T09:31:36.923Z,14.00
2023-03-07T09:31:47.055Z,13.60
2023-03-07T09:31:57.127Z,13.60
2023-03-07T09:32:07.227Z,13.90
2023-03-07T09:32:17.334Z,14.10
2023-03-07T09:32:27.473Z,14.80
2023-03-07T09:32:37.413Z,14.50
2023-03-07T09:32:47.469Z,14.60
2023-03-07T09:32:57.538Z,14.00
2023-03-07T09:33:07.622Z,14.00
2023-03-07T09:33:17.711Z,14.10
2023-03-07T09:33:27.794Z,13.90
2023-03-07T09:33:37.858Z,14.00
2023-03-07T09:33:47.898Z,14.30
2023-03-07T09:33:57.969Z,14.30
2023-03-07T09:34:08.061Z,13.90
2023-03-07T09:34:18.129Z,13.00
2023-03-07T09:34:28.166Z,13.20
2023-03-07T09:34:38.241Z,13.10
2023-03-07T09:34:48.332Z,13.40
2023-03-07T09:34:58.358Z,13.20
2023-03-07T09:35:08.464Z,13.70
2023-03-07T09:35:18.516Z,13.50
2023-03-07T09:35:28.624Z,13.60
2023-03-07T09:35:38.727Z,13.40
2023-03-07T09:35:48.803Z,13.40
2023-03-07T09:35:58.855Z,13.80
2023-03-07T09:36:08.946Z,14.10
2023-03-07T09:36:19.006Z,14.10
2023-03-07T09:36:29.085Z,13.40
2023-03-07T09:36:39.217Z,12.80
2023-03-07T09:36:49.292Z,12.60
2023-03-07T09:36:59.350Z,13.00
2023-03-07T09:37:09.418Z,13.00
2023-03-07T09:37:19.486Z,13.10
2023-03-07T09:37:29.502Z,13.00
2023-03-07T09:37:39.566Z,12.90
2023-03-07T09:37:49.671Z,12.90
2023-03-07T09:37:59.648Z,13.30
2023-03-07T09:38:09.718Z,14.40
2023-03-07T09:38:19.777Z,14.60
2023-03-07T09:38:29.857Z,14.30
2023-03-07T09:38:39.941Z,13.90
2023-03-07T09:38:49.987Z,14.20
2023-03-07T09:39:00.047Z,14.40
2023-03-07T09:39:10.127Z,13.90
2023-03-07T09:39:20.230Z,13.30
2023-03-07T09:39:30.290Z,13.80
2023-03-07T09:39:40.386Z,13.90
2023-03-07T09:39:50.458Z,14.10
2023-03-07T09:40:00.539Z,13.20
2023-03-07T09:40:10.660Z,12.60
2023-03-07T09:40:20.784Z,11.80
2023-03-07T09:40:30.764Z,12.20
2023-03-07T09:40:40.876Z,12.50
2023-03-07T09:40:50.968Z,13.00
2023-03-07T09:41:01.098Z,12.80
2023-03-07T09:41:11.215Z,12.70
2023-03-07T09:41:21.326Z,12.60
2023-03-07T09:41:31.403Z,13.40
2023-03-07T09:41:41.495Z,13.60
2023-03-07T09:41:51.570Z,13.70
2023-03-07T09:42:01.648Z,12.90
2023-03-07T09:42:11.736Z,12.90
2023-03-07T09:42:21.799Z,13.00
2023-03-07T09:42:31.913Z,13.20
2023-03-07T09:42:42.001Z,13.10
2023-03-07T09:42:52.092Z,13.00
2023-03-07T09:43:02.202Z,12.80
2023-03-07T09:43:12.292Z,12.70
2023-03-07T09:43:22.379Z,12.60
2023-03-07T09:43:32.458Z,12.70
2023-03-07T09:43:42.551Z,12.60
2023-03-07T09:43:52.640Z,13.00
2023-03-07T09:44:02.713Z,13.40
2023-03-07T09:44:12.784Z,13.40
2023-03-07T09:44:22.864Z,13.50
2023-03-07T09:44:32.927Z,13.60
2023-03-07T09:44:43.016Z,13.30
2023-03-07T09:44:53.078Z,12.70
2023-03-07T09:45:03.156Z,11.90
2023-03-07T09:45:13.218Z,12.00
2023-03-07T09:45:23.352Z,12.20